CPX215 Details

Departure: Don Miguel Hidalgo y Costilla International Airport (MMGL) at 0900 UTC
Arrival: Benito Juárez International Airport (MMMX) at 1000 UTC
Route: GDL4A GDL UJ14 QET UJ5 TIKEB TIKEB1A


Current Weather Information
MMGL 212242Z 28011G22KT 10SM SKC 32/M05 A2995 RMK CI
MMMX 212332Z 21004KT 6SM BKN020CB BKN080 OVC200 28/M02 A3007 NOSIG RMK 8/367 HZY